Time;durP1;ratioP1;P1;durP2;ratioP2;P2;SDS_P1;SDS_P2;PMS_P1;PMS_P2;Temp;Humidity;BMP_temperature;BMP_pressure;BME280_temperature;BME280_humidity;BME280_pressure;Samples;Min_cycle;Max_cycle;Signal;HPM_P1;HPM_P2
2022/07/13 00:00:14;;;;;;;1.73;1.63;;;26.30;43.90;;;;;;5021892;28;20598;-45
2022/07/13 00:02:39;;;;;;;1.70;1.60;;;26.20;44.00;;;;;;5015577;28;20197;-45
2022/07/13 00:05:06;;;;;;;2.30;1.70;;;26.20;44.10;;;;;;5022587;28;20450;-43
2022/07/13 00:07:32;;;;;;;2.03;1.57;;;26.20;43.90;;;;;;5020682;28;20316;-44
2022/07/13 00:09:58;;;;;;;3.07;2.00;;;26.30;44.10;;;;;;5022376;28;20451;-45
2022/07/13 00:12:24;;;;;;;2.00;1.90;;;26.20;44.10;;;;;;5023790;28;20955;-43
2022/07/13 00:14:50;;;;;;;2.33;1.40;;;26.20;44.00;;;;;;5024803;28;20444;-43
2022/07/13 00:17:15;;;;;;;2.60;1.60;;;26.20;44.10;;;;;;5028064;28;20225;-43
2022/07/13 00:19:41;;;;;;;2.00;1.70;;;26.20;44.20;;;;;;5022869;28;20190;-44
2022/07/13 00:22:07;;;;;;;1.93;1.83;;;26.10;44.30;;;;;;5021964;28;20598;-43
2022/07/13 00:24:32;;;;;;;2.00;1.90;;;26.10;44.30;;;;;;5022239;28;20193;-45
2022/07/13 00:26:58;;;;;;;2.53;1.80;;;25.90;44.60;;;;;;5022558;28;20239;-43
2022/07/13 00:29:23;;;;;;;1.80;1.70;;;25.80;45.00;;;;;;5017409;28;20311;-43
2022/07/13 00:31:49;;;;;;;1.70;1.60;;;25.80;44.80;;;;;;5015880;28;20195;-44
2022/07/13 00:34:15;;;;;;;1.73;1.63;;;25.90;44.80;;;;;;5023813;28;20564;-43
2022/07/13 00:36:40;;;;;;;1.63;1.53;;;25.80;44.80;;;;;;5025192;28;20236;-43
2022/07/13 00:39:06;;;;;;;1.57;1.47;;;25.70;44.70;;;;;;5024688;28;20628;-44
2022/07/13 00:41:31;;;;;;;2.90;1.77;;;25.60;45.30;;;;;;5019917;28;20626;-44
2022/07/13 00:44:07;;;;;;;1.83;1.73;;;25.60;45.30;;;;;;5025414;28;20209;-43
2022/07/13 00:46:34;;;;;;;2.10;2.00;;;25.70;45.10;;;;;;5015932;28;20202;-44
2022/07/13 00:49:00;;;;;;;3.97;2.17;;;25.30;45.80;;;;;;5021788;28;20456;-43
2022/07/13 00:51:27;;;;;;;1.90;1.80;;;25.00;46.60;;;;;;5024292;28;20454;-43
2022/07/13 00:53:53;;;;;;;7.43;5.60;;;25.00;46.60;;;;;;5021952;28;20918;-43
2022/07/13 00:56:20;;;;;;;11.87;7.67;;;25.10;46.50;;;;;;5021244;28;20551;-43
2022/07/13 00:58:46;;;;;;;8.20;5.80;;;25.20;46.20;;;;;;5026311;28;20227;-43
2022/07/13 01:01:12;;;;;;;8.70;4.17;;;25.20;46.30;;;;;;5029531;28;20448;-43
2022/07/13 01:03:37;;;;;;;4.33;2.80;;;25.20;46.20;;;;;;5014806;28;20441;-43
2022/07/13 01:06:05;;;;;;;5.33;2.87;;;25.20;46.00;;;;;;5021984;28;20212;-43
2022/07/13 01:08:33;;;;;;;2.37;2.17;;;25.20;46.20;;;;;;5018463;28;20673;-43
2022/07/13 01:10:59;;;;;;;3.50;2.50;;;25.20;46.20;;;;;;5023740;28;21022;-44
2022/07/13 01:13:25;;;;;;;2.07;1.70;;;25.20;46.20;;;;;;5022432;28;20441;-44
2022/07/13 01:15:51;;;;;;;2.23;1.87;;;25.30;46.10;;;;;;5017599;28;20258;-43
2022/07/13 01:18:17;;;;;;;4.53;2.30;;;25.30;45.90;;;;;;5024318;28;20586;-43
2022/07/13 01:20:43;;;;;;;2.50;1.93;;;25.30;45.90;;;;;;5023541;28;20524;-43
2022/07/13 01:23:14;;;;;;;2.57;2.17;;;25.20;46.00;;;;;;5022982;28;20555;-44
2022/07/13 01:25:41;;;;;;;2.50;2.07;;;24.90;46.80;;;;;;5026343;28;20451;-43
2022/07/13 01:28:07;;;;;;;2.70;2.00;;;24.90;46.80;;;;;;5023806;28;20440;-42
2022/07/13 01:30:34;;;;;;;3.00;2.03;;;25.00;46.70;;;;;;5027943;28;20452;-43
2022/07/13 01:33:00;;;;;;;1.63;1.53;;;24.90;46.80;;;;;;5023587;28;20501;-43
2022/07/13 01:35:26;;;;;;;2.20;1.90;;;24.80;46.60;;;;;;5024053;28;20483;-43
2022/07/13 01:37:53;;;;;;;1.93;1.83;;;24.80;46.90;;;;;;5027985;28;20514;-43
2022/07/13 01:40:19;;;;;;;1.83;1.70;;;24.80;46.60;;;;;;5019995;28;20845;-43
2022/07/13 01:42:47;;;;;;;2.00;1.90;;;24.80;46.70;;;;;;5015203;28;20445;-44
2022/07/13 01:45:15;;;;;;;4.83;2.00;;;24.80;47.20;;;;;;5023729;28;20196;-44
2022/07/13 01:47:42;;;;;;;1.67;1.57;;;24.90;46.40;;;;;;5018675;28;20845;-43
2022/07/13 01:50:10;;;;;;;2.20;2.10;;;24.70;46.80;;;;;;5024944;28;20796;-43
2022/07/13 01:52:36;;;;;;;1.70;1.60;;;24.80;46.80;;;;;;5020857;28;20440;-43
2022/07/13 01:55:06;;;;;;;2.23;2.10;;;24.20;47.50;;;;;;5018749;28;20458;-43
2022/07/13 01:57:32;;;;;;;2.40;1.90;;;24.10;48.30;;;;;;5020084;28;20487;-43
2022/07/13 02:00:03;;;;;;;1.70;1.60;;;24.20;48.00;;;;;;5028977;28;20719;-43
2022/07/13 02:02:29;;;;;;;1.90;1.80;;;24.20;47.90;;;;;;5022267;28;20532;-43
2022/07/13 02:04:55;;;;;;;1.73;1.63;;;24.30;47.90;;;;;;5023447;28;21033;-43
2022/07/13 02:07:21;;;;;;;5.50;2.00;;;24.40;47.70;;;;;;5013060;28;20205;-42
2022/07/13 02:09:48;;;;;;;2.90;1.70;;;24.40;47.60;;;;;;5021320;28;20587;-42
2022/07/13 02:12:13;;;;;;;2.73;1.90;;;24.40;47.50;;;;;;5027758;28;21331;-43
2022/07/13 02:14:39;;;;;;;2.90;1.90;;;24.30;47.90;;;;;;5025273;28;20528;-43
2022/07/13 02:17:05;;;;;;;2.60;2.40;;;24.30;47.90;;;;;;5027862;28;20307;-43
2022/07/13 02:19:30;;;;;;;2.50;1.87;;;24.10;48.00;;;;;;5026997;28;20202;-43
2022/07/13 02:21:56;;;;;;;2.07;1.80;;;24.10;48.20;;;;;;5026221;28;20197;-43
2022/07/13 02:24:21;;;;;;;2.37;1.67;;;23.90;48.70;;;;;;5027123;28;20197;-43
2022/07/13 02:26:47;;;;;;;2.73;1.87;;;23.80;48.80;;;;;;5022811;28;20189;-42
2022/07/13 02:29:12;;;;;;;2.13;1.90;;;23.90;48.70;;;;;;5017011;28;20589;-42
2022/07/13 02:31:38;;;;;;;2.33;1.80;;;23.70;49.00;;;;;;5026361;28;20200;-43
2022/07/13 02:34:04;;;;;;;2.20;2.10;;;23.40;49.50;;;;;;5019998;28;20568;-42
2022/07/13 02:36:29;;;;;;;1.90;1.80;;;23.10;50.20;;;;;;5024886;28;20283;-42
2022/07/13 02:38:56;;;;;;;1.80;1.70;;;23.00;50.50;;;;;;5021885;28;20641;-43
2022/07/13 02:41:21;;;;;;;2.00;1.90;;;23.10;50.40;;;;;;5025997;28;20501;-43
2022/07/13 02:43:47;;;;;;;2.50;1.80;;;23.10;50.40;;;;;;5023741;28;20186;-42
2022/07/13 02:46:13;;;;;;;2.00;1.90;;;23.10;50.40;;;;;;5021153;28;20239;-43
2022/07/13 02:48:38;;;;;;;1.70;1.60;;;23.20;50.20;;;;;;5023473;28;20546;-42
2022/07/13 02:51:04;;;;;;;1.70;1.60;;;23.20;50.10;;;;;;5027673;28;20211;-44
2022/07/13 02:53:30;;;;;;;2.50;1.73;;;23.00;50.50;;;;;;5025729;28;20641;-43
2022/07/13 02:55:55;;;;;;;1.77;1.60;;;22.90;50.80;;;;;;5028218;28;20197;-43
2022/07/13 02:58:21;;;;;;;2.13;2.00;;;22.90;51.10;;;;;;5023434;28;20321;-44
2022/07/13 03:00:47;;;;;;;2.00;1.70;;;22.90;50.80;;;;;;5027082;28;20253;-43
2022/07/13 03:03:12;;;;;;;2.03;1.90;;;23.10;50.50;;;;;;5017153;28;20192;-43
2022/07/13 03:05:38;;;;;;;5.10;1.87;;;23.20;50.20;;;;;;5009514;28;20418;-43
2022/07/13 03:08:04;;;;;;;2.60;2.40;;;23.30;50.10;;;;;;5019115;28;20642;-43
2022/07/13 03:10:29;;;;;;;2.80;2.10;;;23.30;50.00;;;;;;5015372;28;20284;-43
2022/07/13 03:12:55;;;;;;;2.20;2.00;;;23.40;49.50;;;;;;5018227;28;20449;-43
2022/07/13 03:15:21;;;;;;;2.13;1.93;;;23.40;49.60;;;;;;5021620;28;20705;-43
2022/07/13 03:17:47;;;;;;;2.03;1.57;;;23.40;49.90;;;;;;5022461;28;20348;-46
2022/07/13 03:20:12;;;;;;;2.47;2.27;;;23.10;49.80;;;;;;5024671;28;20200;-44
2022/07/13 03:22:38;;;;;;;2.37;1.70;;;23.00;50.20;;;;;;5024016;28;20258;-43
2022/07/13 03:25:05;;;;;;;1.83;1.67;;;23.00;50.10;;;;;;5022093;28;20209;-43
2022/07/13 03:27:31;;;;;;;1.63;1.53;;;22.90;50.40;;;;;;5021022;28;20260;-47
2022/07/13 03:29:56;;;;;;;3.57;1.70;;;22.90;50.40;;;;;;5024583;28;20847;-45
2022/07/13 03:32:22;;;;;;;2.27;2.07;;;23.00;50.40;;;;;;5025760;28;20198;-43
2022/07/13 03:34:48;;;;;;;1.83;1.73;;;23.10;50.30;;;;;;5029253;28;20676;-47
2022/07/13 03:37:13;;;;;;;1.70;1.60;;;23.10;50.00;;;;;;5018225;28;20267;-44
2022/07/13 03:39:39;;;;;;;2.40;1.53;;;23.30;49.70;;;;;;5020469;28;20197;-46
2022/07/13 03:42:05;;;;;;;1.80;1.70;;;23.30;49.80;;;;;;5027966;28;20292;-44
2022/07/13 03:44:31;;;;;;;1.83;1.73;;;23.20;49.90;;;;;;5021597;28;20201;-44
2022/07/13 03:46:57;;;;;;;2.80;1.97;;;23.30;49.70;;;;;;5025317;28;20432;-43
2022/07/13 03:49:23;;;;;;;1.97;1.87;;;23.40;49.60;;;;;;5027801;28;20245;-44
2022/07/13 03:51:48;;;;;;;2.20;2.00;;;23.30;49.60;;;;;;5012177;28;20634;-44
2022/07/13 03:54:20;;;;;;;2.10;1.90;;;23.30;49.60;;;;;;5026051;28;20208;-44
2022/07/13 03:56:46;;;;;;;2.23;2.03;;;23.40;49.60;;;;;;5024001;28;20218;-44
2022/07/13 03:59:12;;;;;;;2.93;2.73;;;23.40;49.50;;;;;;5017031;28;20498;-43
2022/07/13 04:01:37;;;;;;;6.10;4.50;;;23.20;49.50;;;;;;5024820;28;20471;-43
2022/07/13 04:04:03;;;;;;;5.27;3.40;;;23.10;50.10;;;;;;5021486;28;20243;-43
2022/07/13 04:06:29;;;;;;;4.93;2.40;;;23.20;49.90;;;;;;5026670;28;20668;-43
2022/07/13 04:08:55;;;;;;;2.47;2.27;;;23.30;49.50;;;;;;5023525;28;20532;-45
2022/07/13 04:11:20;;;;;;;2.47;2.27;;;23.40;49.30;;;;;;5023381;28;20450;-44
2022/07/13 04:13:46;;;;;;;2.30;2.10;;;23.50;49.00;;;;;;5026199;28;20272;-43
2022/07/13 04:16:12;;;;;;;2.00;1.90;;;23.50;49.00;;;;;;5024733;28;20335;-43
2022/07/13 04:18:43;;;;;;;2.27;2.17;;;23.40;49.10;;;;;;5030769;28;20229;-46
2022/07/13 04:21:10;;;;;;;2.20;2.10;;;23.00;50.00;;;;;;5029404;28;20946;-44
2022/07/13 04:23:37;;;;;;;1.83;1.73;;;22.80;50.60;;;;;;5027205;28;20455;-47
2022/07/13 04:26:02;;;;;;;2.27;2.17;;;22.70;50.90;;;;;;5028209;28;20448;-44
2022/07/13 04:28:31;;;;;;;2.27;2.07;;;22.70;51.00;;;;;;5026807;28;20977;-44
2022/07/13 04:30:57;;;;;;;2.07;1.97;;;22.60;51.10;;;;;;5021988;28;20189;-44
2022/07/13 04:33:23;;;;;;;1.90;1.80;;;22.60;51.40;;;;;;5028446;28;20447;-47
2022/07/13 04:35:48;;;;;;;2.10;2.00;;;22.50;51.50;;;;;;5025472;28;20247;-43
2022/07/13 04:38:14;;;;;;;2.43;2.23;;;22.60;51.50;;;;;;5026049;28;20237;-44
2022/07/13 04:40:40;;;;;;;2.43;2.23;;;22.80;51.10;;;;;;5028191;28;20201;-44
2022/07/13 04:43:06;;;;;;;2.57;2.10;;;22.90;50.60;;;;;;5025867;28;20202;-45
2022/07/13 04:45:32;;;;;;;2.20;2.10;;;23.10;50.20;;;;;;5021883;28;20283;-44
2022/07/13 04:47:58;;;;;;;3.40;2.03;;;22.90;50.40;;;;;;5027234;28;21331;-45
2022/07/13 04:50:24;;;;;;;1.70;1.60;;;23.00;50.40;;;;;;5017861;28;20260;-45
2022/07/13 04:52:50;;;;;;;2.60;2.40;;;23.00;50.40;;;;;;5030469;28;20432;-45
2022/07/13 04:55:16;;;;;;;4.00;1.67;;;23.10;50.10;;;;;;5022577;28;20444;-44
2022/07/13 04:57:42;;;;;;;2.33;2.10;;;23.30;49.90;;;;;;5026378;28;20312;-44
2022/07/13 05:00:09;;;;;;;2.80;1.97;;;23.50;49.60;;;;;;5027202;28;20555;-46
2022/07/13 05:02:41;;;;;;;2.23;2.03;;;23.60;49.20;;;;;;5017019;28;20258;-45
2022/07/13 05:05:07;;;;;;;4.03;2.20;;;23.60;49.10;;;;;;5018388;28;20443;-47
2022/07/13 05:07:35;;;;;;;2.50;2.40;;;23.70;49.20;;;;;;5023309;28;20481;-45
2022/07/13 05:10:01;;;;;;;2.43;2.30;;;23.50;49.50;;;;;;5025683;28;20452;-46
2022/07/13 05:12:26;;;;;;;4.07;2.07;;;23.70;49.30;;;;;;5021498;28;20463;-44
2022/07/13 05:14:52;;;;;;;3.33;2.00;;;23.70;49.50;;;;;;5022449;28;20194;-45
2022/07/13 05:17:18;;;;;;;4.80;2.40;;;23.60;49.90;;;;;;5023208;28;20685;-46
2022/07/13 05:19:43;;;;;;;5.93;2.20;;;23.60;49.70;;;;;;5020765;28;20195;-46
2022/07/13 05:22:09;;;;;;;3.00;2.63;;;23.70;49.50;;;;;;5024500;28;20200;-43
2022/07/13 05:24:36;;;;;;;3.10;2.10;;;23.60;49.70;;;;;;5020718;28;20206;-44
2022/07/13 05:27:02;;;;;;;1.97;1.87;;;23.30;50.50;;;;;;5023519;28;20535;-47
2022/07/13 05:29:27;;;;;;;2.13;2.03;;;23.30;50.60;;;;;;5028523;28;20597;-46
2022/07/13 05:31:53;;;;;;;2.40;2.30;;;23.10;51.00;;;;;;5023263;28;20285;-44
2022/07/13 05:34:18;;;;;;;2.80;2.00;;;23.20;51.10;;;;;;5021638;28;20202;-44
2022/07/13 05:36:44;;;;;;;2.37;2.17;;;22.90;52.00;;;;;;5028036;28;20638;-46
2022/07/13 05:39:10;;;;;;;3.13;1.80;;;22.80;52.10;;;;;;5028381;28;20233;-46
2022/07/13 05:41:35;;;;;;;2.47;2.20;;;22.90;52.40;;;;;;5017105;28;20281;-44
2022/07/13 05:44:01;;;;;;;2.20;1.90;;;23.00;52.10;;;;;;5023051;28;20204;-47
2022/07/13 05:46:27;;;;;;;2.80;2.20;;;23.10;52.10;;;;;;5032003;28;21021;-47
2022/07/13 05:48:53;;;;;;;2.20;2.00;;;22.90;52.50;;;;;;5029404;28;20200;-45
2022/07/13 05:51:18;;;;;;;2.50;2.10;;;22.60;53.10;;;;;;5027399;28;20808;-44
2022/07/13 05:53:46;;;;;;;1.93;1.50;;;22.20;54.10;;;;;;5027595;28;20675;-44
2022/07/13 05:56:11;;;;;;;2.30;2.10;;;22.20;54.50;;;;;;5028777;28;21049;-46
2022/07/13 05:58:37;;;;;;;2.40;1.90;;;22.20;54.40;;;;;;5026122;28;20482;-44
2022/07/13 06:01:03;;;;;;;1.80;1.70;;;22.20;55.10;;;;;;5022283;28;20201;-44
2022/07/13 06:03:28;;;;;;;1.80;1.70;;;22.20;54.80;;;;;;5026467;28;20186;-47
2022/07/13 06:05:54;;;;;;;2.17;1.70;;;22.50;54.20;;;;;;5029858;28;20200;-44
2022/07/13 06:08:20;;;;;;;2.40;2.00;;;22.60;53.70;;;;;;5022546;28;20197;-46
2022/07/13 06:10:45;;;;;;;4.20;2.43;;;22.70;53.70;;;;;;5030104;28;20659;-44
2022/07/13 06:13:11;;;;;;;2.60;2.10;;;22.90;53.80;;;;;;5030497;28;20205;-47
2022/07/13 06:15:36;;;;;;;2.30;2.00;;;23.00;53.20;;;;;;5038305;28;20204;-45
2022/07/13 06:18:02;;;;;;;3.13;1.83;;;23.10;53.20;;;;;;5026920;28;20274;-45
2022/07/13 06:20:28;;;;;;;8.27;1.70;;;23.30;52.60;;;;;;5032775;28;20189;-47
2022/07/13 06:23:11;;;;;;;3.90;2.23;;;23.50;52.00;;;;;;5021834;28;20572;-45
2022/07/13 06:25:39;;;;;;;2.77;2.00;;;23.60;51.70;;;;;;5023526;28;20200;-46
2022/07/13 06:28:05;;;;;;;2.97;2.20;;;23.80;51.60;;;;;;5022263;28;20448;-44
2022/07/13 06:30:31;;;;;;;2.40;1.77;;;23.90;51.10;;;;;;5028116;28;20482;-47
2022/07/13 06:32:57;;;;;;;3.10;1.90;;;24.00;51.00;;;;;;5030964;28;20467;-44
2022/07/13 06:35:23;;;;;;;1.80;1.70;;;24.10;50.80;;;;;;5030961;28;20439;-45
2022/07/13 06:37:48;;;;;;;2.13;1.60;;;24.40;50.40;;;;;;5027202;28;20626;-43
2022/07/13 06:40:14;;;;;;;2.27;1.70;;;24.50;50.20;;;;;;5030441;28;20242;-44
2022/07/13 06:42:40;;;;;;;1.70;1.60;;;24.60;50.00;;;;;;5028594;28;20292;-44
2022/07/13 06:45:06;;;;;;;5.73;1.80;;;24.70;49.80;;;;;;5023721;28;20255;-45
2022/07/13 06:47:31;;;;;;;2.40;1.80;;;24.80;49.60;;;;;;5028159;28;20280;-48
2022/07/13 06:49:57;;;;;;;1.90;1.30;;;24.90;49.30;;;;;;5027436;28;20255;-45
2022/07/13 06:52:23;;;;;;;4.80;1.87;;;24.60;49.50;;;;;;5029232;28;20221;-44
2022/07/13 06:54:49;;;;;;;2.30;1.67;;;24.70;49.80;;;;;;5028419;28;20664;-45
2022/07/13 06:57:14;;;;;;;2.57;1.40;;;24.80;49.90;;;;;;5039795;28;20577;-47
2022/07/13 06:59:41;;;;;;;2.60;2.07;;;25.00;49.50;;;;;;5031399;28;20299;-45
2022/07/13 07:02:06;;;;;;;1.97;1.77;;;25.00;49.60;;;;;;5029835;28;20193;-46
2022/07/13 07:04:32;;;;;;;1.80;1.70;;;25.30;49.30;;;;;;5029268;28;20466;-48
2022/07/13 07:06:57;;;;;;;2.17;1.80;;;25.60;48.70;;;;;;5028518;28;20530;-45
2022/07/13 07:09:23;;;;;;;4.60;1.60;;;25.70;48.30;;;;;;5032468;28;20246;-43
2022/07/13 07:11:48;;;;;;;1.40;1.30;;;25.90;47.10;;;;;;5027562;28;20207;-47
2022/07/13 07:14:14;;;;;;;1.83;1.53;;;26.10;47.00;;;;;;5030416;28;20239;-44
2022/07/13 07:16:40;;;;;;;1.73;1.60;;;26.20;46.30;;;;;;5033127;28;20242;-46
2022/07/13 07:19:05;;;;;;;1.83;1.73;;;26.40;46.50;;;;;;5031660;28;20270;-47
2022/07/13 07:21:31;;;;;;;1.37;1.30;;;26.50;45.50;;;;;;5033216;28;20193;-45
2022/07/13 07:23:57;;;;;;;2.77;1.57;;;26.60;44.60;;;;;;5031317;28;20255;-45
2022/07/13 07:26:22;;;;;;;1.60;1.50;;;26.70;44.90;;;;;;5033461;28;20205;-44
2022/07/13 07:28:48;;;;;;;1.77;1.50;;;26.80;44.90;;;;;;5032992;28;20196;-46
2022/07/13 07:31:13;;;;;;;1.83;1.60;;;27.00;44.90;;;;;;5032472;28;20219;-46
2022/07/13 07:33:39;;;;;;;4.30;1.57;;;27.20;44.70;;;;;;5032202;28;20308;-47
2022/07/13 07:36:05;;;;;;;3.43;1.80;;;27.30;44.40;;;;;;5030161;28;20550;-44
2022/07/13 07:38:31;;;;;;;1.83;1.73;;;27.40;43.90;;;;;;5032816;28;20221;-45
2022/07/13 07:40:58;;;;;;;3.23;2.13;;;27.60;43.80;;;;;;5031876;28;20443;-46
2022/07/13 07:43:24;;;;;;;2.00;1.80;;;27.70;43.80;;;;;;5032291;28;20208;-45
2022/07/13 07:45:50;;;;;;;2.50;2.30;;;27.80;43.30;;;;;;5028000;28;20439;-44
2022/07/13 07:48:15;;;;;;;2.30;2.10;;;27.90;43.00;;;;;;5031790;28;20221;-44
2022/07/13 07:50:41;;;;;;;2.20;2.00;;;28.00;43.40;;;;;;5032693;28;20186;-44
2022/07/13 07:53:06;;;;;;;3.27;1.90;;;28.20;43.00;;;;;;5032085;28;20239;-44
2022/07/13 07:55:32;;;;;;;3.30;2.10;;;28.30;42.30;;;;;;5032403;28;20193;-45
2022/07/13 07:57:58;;;;;;;5.37;2.23;;;28.50;41.90;;;;;;5040301;28;20607;-44
2022/07/13 08:00:24;;;;;;;4.17;2.57;;;28.70;41.60;;;;;;5030967;28;20293;-47
2022/07/13 08:02:49;;;;;;;2.17;1.97;;;28.70;40.60;;;;;;5027973;28;20227;-44
2022/07/13 08:05:16;;;;;;;2.37;1.80;;;28.90;39.70;;;;;;5027391;28;20192;-45
2022/07/13 08:07:42;;;;;;;3.87;2.17;;;29.10;39.40;;;;;;5034755;28;20302;-44
2022/07/13 08:10:09;;;;;;;2.13;1.87;;;29.20;39.30;;;;;;5031171;28;20443;-44
2022/07/13 08:12:35;;;;;;;6.67;1.60;;;29.30;39.50;;;;;;5030238;28;20440;-44
2022/07/13 08:15:01;;;;;;;1.97;1.70;;;29.30;39.20;;;;;;5026564;28;20972;-44
2022/07/13 08:17:26;;;;;;;4.00;1.73;;;29.40;38.70;;;;;;5026479;28;20654;-44
2022/07/13 08:19:52;;;;;;;1.80;1.70;;;29.50;38.60;;;;;;5030966;28;20271;-45
2022/07/13 08:22:18;;;;;;;2.83;1.40;;;29.60;37.70;;;;;;5026442;28;20820;-44
2022/07/13 08:24:43;;;;;;;3.03;1.70;;;29.00;38.60;;;;;;5028347;28;20194;-44
2022/07/13 08:27:09;;;;;;;1.50;1.40;;;29.10;38.70;;;;;;5028479;28;20204;-45
2022/07/13 08:29:34;;;;;;;1.40;1.30;;;29.40;38.90;;;;;;5031255;28;20230;-44
2022/07/13 08:32:01;;;;;;;2.70;1.37;;;29.60;37.70;;;;;;5028336;28;20235;-45
2022/07/13 08:39:54;;;;;;;2.10;1.50;;;30.20;36.30;;;;;;5028606;28;20454;-46
2022/07/13 08:42:20;;;;;;;2.40;1.77;;;30.40;36.10;;;;;;5016435;28;20448;-44
2022/07/13 08:44:46;;;;;;;2.20;1.30;;;30.60;36.20;;;;;;5025458;28;20198;-44
2022/07/13 08:47:11;;;;;;;1.57;1.47;;;30.30;36.50;;;;;;5033111;28;20197;-45
2022/07/13 08:49:37;;;;;;;1.60;1.50;;;30.30;36.60;;;;;;5039441;28;20652;-45
2022/07/13 08:52:03;;;;;;;4.70;1.90;;;30.50;36.70;;;;;;5031679;28;20193;-44
2022/07/13 08:54:32;;;;;;;2.03;1.40;;;30.70;36.50;;;;;;5031240;28;20201;-44
2022/07/13 08:56:58;;;;;;;4.47;1.50;;;30.70;36.50;;;;;;5029631;28;20568;-44
2022/07/13 08:59:23;;;;;;;1.93;1.83;;;30.80;36.50;;;;;;5028745;28;20966;-45
2022/07/13 09:01:49;;;;;;;3.63;1.40;;;31.00;36.70;;;;;;5015288;28;20203;-44
2022/07/13 09:04:15;;;;;;;1.40;1.30;;;31.20;35.80;;;;;;5023218;28;20212;-45
2022/07/13 09:06:43;;;;;;;1.60;1.20;;;31.10;35.90;;;;;;5026642;28;20201;-44
2022/07/13 09:09:23;;;;;;;2.40;1.53;;;31.40;36.20;;;;;;5029319;28;20284;-45
2022/07/13 09:11:49;;;;;;;3.00;1.80;;;31.60;35.20;;;;;;5023344;28;20462;-43
2022/07/13 09:14:25;;;;;;;1.60;1.50;;;31.70;34.40;;;;;;5033553;28;20451;-43
2022/07/13 09:16:52;;;;;;;2.73;1.37;;;31.80;34.00;;;;;;5024040;28;21408;-46
2022/07/13 09:19:18;;;;;;;1.60;1.50;;;31.90;34.60;;;;;;5027259;28;20479;-44
2022/07/13 09:21:44;;;;;;;2.07;1.87;;;31.90;34.80;;;;;;5021567;28;21056;-44
2022/07/13 09:24:09;;;;;;;1.60;1.50;;;32.00;34.50;;;;;;5026335;28;20436;-43
2022/07/13 09:26:45;;;;;;;1.40;1.30;;;32.10;34.70;;;;;;5031062;28;20185;-43
2022/07/13 09:29:11;;;;;;;1.73;1.30;;;32.20;33.90;;;;;;5019405;28;20695;-43
2022/07/13 09:31:56;;;;;;;1.50;1.40;;;32.30;33.60;;;;;;5031016;28;20444;-47
2022/07/13 09:34:51;;;;;;;2.40;1.40;;;32.40;33.20;;;;;;5033896;28;20458;-47
2022/07/13 09:37:21;;;;;;;2.27;1.37;;;32.60;33.00;;;;;;5032375;28;20484;-47
2022/07/13 09:39:57;;;;;;;2.37;1.10;;;32.80;33.30;;;;;;5026790;28;20542;-47
2022/07/13 09:42:27;;;;;;;1.47;1.37;;;33.10;32.80;;;;;;5031924;28;20544;-44
2022/07/13 09:47:46;;;;;;;1.67;1.57;;;33.20;30.70;;;;;;5026524;28;20474;-46
2022/07/13 09:50:12;;;;;;;1.57;1.10;;;33.40;30.40;;;;;;5035128;28;20525;-45
2022/07/13 09:52:38;;;;;;;1.80;1.13;;;33.50;30.70;;;;;;5027770;28;20452;-47
2022/07/13 09:55:06;;;;;;;1.50;1.40;;;33.20;30.50;;;;;;5025350;28;20842;-43
2022/07/13 09:57:35;;;;;;;1.90;1.43;;;33.00;31.30;;;;;;5025035;28;20278;-44
2022/07/13 10:00:02;;;;;;;1.60;1.50;;;33.20;30.80;;;;;;5028035;28;20444;-47
2022/07/13 10:02:29;;;;;;;2.20;1.40;;;33.20;30.90;;;;;;5028832;28;20505;-44
2022/07/13 10:04:57;;;;;;;1.50;1.40;;;33.60;30.10;;;;;;5028788;28;20440;-46
2022/07/13 10:07:23;;;;;;;2.50;1.17;;;34.00;29.50;;;;;;5029165;28;20879;-47
2022/07/13 10:09:49;;;;;;;3.07;1.47;;;34.40;28.50;;;;;;5029184;28;20451;-45
2022/07/13 10:12:15;;;;;;;1.60;1.50;;;34.60;27.90;;;;;;5027360;28;20534;-44
2022/07/13 10:14:41;;;;;;;1.60;1.43;;;34.90;27.80;;;;;;5029388;28;20955;-44
2022/07/13 10:17:12;;;;;;;1.57;1.47;;;35.00;27.80;;;;;;5027866;28;20275;-47
2022/07/13 10:19:58;;;;;;;2.50;1.43;;;35.10;27.40;;;;;;5029703;28;20442;-46
2022/07/13 10:22:27;;;;;;;1.43;1.33;;;35.20;27.90;;;;;;5025141;28;20818;-46
2022/07/13 10:24:54;;;;;;;1.57;1.03;;;35.30;28.40;;;;;;5030717;28;20442;-44
2022/07/13 10:27:28;;;;;;;1.30;1.30;;;35.50;27.50;;;;;;5029293;28;20447;-44
2022/07/13 10:29:59;;;;;;;1.30;1.20;;;35.60;26.50;;;;;;5027719;28;20450;-43
2022/07/13 10:32:27;;;;;;;3.63;1.40;;;35.60;27.00;;;;;;5028427;28;20452;-46
2022/07/13 10:35:10;;;;;;;1.33;1.23;;;35.70;27.00;;;;;;5030187;28;20466;-47
2022/07/13 10:38:14;;;;;;;1.77;1.40;;;35.90;27.50;;;;;;5022508;28;20503;-44
2022/07/13 10:40:40;;;;;;;1.90;1.50;;;36.10;26.80;;;;;;5005548;28;20448;-47
2022/07/13 10:43:06;;;;;;;1.53;1.30;;;36.30;27.20;;;;;;5023439;28;20451;-45
2022/07/13 10:45:48;;;;;;;1.17;1.10;;;36.40;27.10;;;;;;5020603;28;20201;-43
2022/07/13 10:48:16;;;;;;;2.00;1.10;;;36.40;26.30;;;;;;5029166;28;20225;-44
2022/07/13 10:50:47;;;;;;;1.50;1.40;;;36.20;25.80;;;;;;5021941;28;22490;-46
2022/07/13 10:53:15;;;;;;;1.50;1.30;;;36.30;26.10;;;;;;5022636;28;20456;-45
2022/07/13 10:55:49;;;;;;;4.03;1.53;;;36.60;25.80;;;;;;5027282;28;20663;-45
2022/07/13 10:58:29;;;;;;;1.87;1.50;;;36.60;26.00;;;;;;5040057;28;20487;-46
2022/07/13 11:00:56;;;;;;;1.60;1.50;;;36.80;26.10;;;;;;5028534;28;20830;-44
2022/07/13 11:03:30;;;;;;;1.20;1.20;;;36.90;25.90;;;;;;5026260;28;20958;-43
2022/07/13 11:06:09;;;;;;;1.50;1.40;;;37.10;25.40;;;;;;5029090;28;20853;-44
2022/07/13 11:08:35;;;;;;;2.57;1.50;;;37.20;24.60;;;;;;5025903;28;20947;-43
2022/07/13 11:11:16;;;;;;;1.00;1.00;;;37.50;24.50;;;;;;5028036;28;20450;-44
2022/07/13 11:13:48;;;;;;;1.60;1.50;;;37.70;23.30;;;;;;5029661;28;20196;-44
2022/07/13 11:16:34;;;;;;;1.43;1.33;;;37.80;23.40;;;;;;5027835;28;20446;-45
2022/07/13 11:18:59;;;;;;;1.30;1.20;;;38.10;23.60;;;;;;5038062;28;20525;-44
2022/07/13 11:21:25;;;;;;;1.90;0.90;;;38.20;22.70;;;;;;5028030;28;20784;-44
2022/07/13 11:26:48;;;;;;;1.40;1.30;;;38.10;22.40;;;;;;5020922;28;20219;-43
2022/07/13 11:29:43;;;;;;;1.20;1.00;;;38.20;22.20;;;;;;5025789;28;20992;-44
2022/07/13 11:32:09;;;;;;;1.10;1.10;;;38.30;22.10;;;;;;5025298;28;20509;-46
2022/07/13 11:34:36;;;;;;;1.13;1.13;;;38.40;21.90;;;;;;5026307;28;20447;-44
2022/07/13 11:37:02;;;;;;;1.17;1.17;;;38.60;22.10;;;;;;5028115;28;20482;-44
2022/07/13 11:39:33;;;;;;;1.00;1.00;;;38.60;20.80;;;;;;5025614;28;20439;-44
2022/07/13 11:42:00;;;;;;;1.30;1.20;;;38.60;20.40;;;;;;5029467;28;20427;-43
2022/07/13 11:44:27;;;;;;;2.13;1.13;;;38.60;20.70;;;;;;5023547;28;20439;-44
2022/07/13 11:46:54;;;;;;;1.13;1.13;;;38.60;20.60;;;;;;5032840;28;20497;-44
2022/07/13 11:49:21;;;;;;;4.13;1.20;;;38.70;20.10;;;;;;5025445;28;20493;-45
2022/07/13 11:51:48;;;;;;;1.13;1.03;;;38.60;19.40;;;;;;5028345;28;20448;-44
2022/07/13 11:54:16;;;;;;;2.13;1.10;;;38.20;19.90;;;;;;5026451;28;20447;-43
2022/07/13 11:56:50;;;;;;;1.27;1.17;;;38.30;19.80;;;;;;5025768;28;20443;-45
2022/07/13 11:59:35;;;;;;;1.20;1.10;;;38.40;19.90;;;;;;5025273;28;20544;-44
2022/07/13 12:02:02;;;;;;;1.17;1.10;;;38.50;19.60;;;;;;5024671;28;20458;-43
2022/07/13 12:04:28;;;;;;;1.10;1.00;;;38.50;18.50;;;;;;5027207;28;20436;-43
2022/07/13 12:07:13;;;;;;;1.10;1.00;;;38.60;19.50;;;;;;5032685;28;20419;-44
2022/07/13 12:10:02;;;;;;;1.90;1.00;;;38.80;18.80;;;;;;5031097;28;20928;-44
2022/07/13 12:12:30;;;;;;;2.10;1.00;;;38.90;19.20;;;;;;5028815;28;20459;-44
2022/07/13 12:14:56;;;;;;;1.67;1.20;;;39.10;18.80;;;;;;5032287;28;20490;-44
2022/07/13 12:17:23;;;;;;;1.10;1.10;;;39.10;18.60;;;;;;5038624;28;20478;-44
2022/07/13 12:19:50;;;;;;;1.07;1.03;;;39.20;18.40;;;;;;5030424;28;20482;-44
2022/07/13 12:22:20;;;;;;;1.57;0.90;;;39.10;17.80;;;;;;5017787;28;20444;-44
2022/07/13 12:24:47;;;;;;;1.87;1.10;;;39.10;18.20;;;;;;5026866;28;20526;-44
2022/07/13 12:27:21;;;;;;;1.20;1.13;;;39.30;19.40;;;;;;5031555;28;20826;-46
2022/07/13 12:29:46;;;;;;;1.97;0.93;;;39.30;18.40;;;;;;5024346;28;20438;-44
2022/07/13 12:32:12;;;;;;;1.33;1.03;;;39.40;17.90;;;;;;5030687;28;20990;-44
2022/07/13 12:34:52;;;;;;;1.50;1.40;;;39.50;18.10;;;;;;5030678;28;20203;-44
2022/07/13 12:37:34;;;;;;;1.77;1.30;;;39.60;17.70;;;;;;5032753;28;20305;-49
2022/07/13 12:40:00;;;;;;;1.20;1.10;;;39.40;18.50;;;;;;5027427;28;20786;-48
2022/07/13 12:42:25;;;;;;;1.10;1.00;;;39.50;17.70;;;;;;5029644;28;20446;-49
2022/07/13 12:44:52;;;;;;;1.17;1.17;;;39.60;17.60;;;;;;5030078;28;20242;-45
2022/07/13 12:47:24;;;;;;;3.40;1.10;;;39.80;17.80;;;;;;5016763;28;20185;-48
2022/07/13 12:49:50;;;;;;;1.37;1.27;;;39.40;17.80;;;;;;5025644;28;20447;-48
2022/07/13 12:52:19;;;;;;;1.30;1.30;;;39.10;18.10;;;;;;5031670;28;20771;-48
2022/07/13 12:54:50;;;;;;;2.97;1.27;;;39.20;18.50;;;;;;5032130;28;20435;-45
2022/07/13 12:57:24;;;;;;;0.97;0.97;;;39.30;18.50;;;;;;5034673;28;21132;-47
2022/07/13 13:00:07;;;;;;;1.13;1.10;;;39.30;18.30;;;;;;5024656;28;20509;-46